Latest Weather Observations for Cobar Airport

IDN60801

Issued at 1:03 pm EDT Friday 18 January 2019 (issued every 10 minutes, with the page automatically refreshed every 10 minutes)

About weather observations | Map of weather stations | Latest weather observations for NSW | Other Formats
Station Details ID: 048237 Name: COBAR AIRPORT AWS Lat: -31.54 Lon: 145.80 Height: 218.0 m
Data from the previous 72 hours. | See also: Recent months at Cobar Airport
Date/Time
EDT
Temp
°C
App
Temp
°C
Dew
Point
°C
Rel
Hum
%
Delta-T
°C
Wind Press
QNH
hPa
Press
MSL
hPa
Rain since
9am
mm
Dir  Spd
km/h
Gust
km/h
Spd
kts
Gust
kts
18/01:00pm 42.8 38.3 8.5 13 20.3 N 22 35 12 19 1008.4 1007.0 0.0
18/12:52pm 44.5 38.9 8.6 12 21.4 N 28 48 15 26 1008.3 1006.9 0.0
18/12:30pm 42.5 36.8 8.3 13 20.1 NNE 28 43 15 23 1008.4 1007.0 0.0
18/12:00pm 41.9 36.3 8.9 14 19.5 N 28 39 15 21 1008.8 1007.4 0.0
18/11:30am 42.5 37.1 9.4 14 19.7 N 28 39 15 21 1008.8 1007.4 0.0
18/11:00am 40.5 34.7 10.7 17 18.0 N 32 41 17 22 1009.0 1007.6 0.0
18/10:30am 40.2 34.7 10.5 17 17.8 N 30 43 16 23 1009.1 1007.7 0.0
18/10:00am 38.7 32.7 10.1 18 17.0 N 32 43 17 23 1009.3 1007.9 0.0
18/09:30am 37.7 31.7 10.9 20 16.0 N 33 50 18 27 1009.2 1007.8 0.0
18/09:25am 37.6 31.8 10.8 20 16.0 N 32 50 17 27 1009.1 1007.7 0.0
18/09:00am 37.1 31.4 11.1 21 15.6 N 32 43 17 23 1009.2 1007.8 0.0
18/08:30am 35.9 30.5 10.9 22 14.8 NNE 30 37 16 20 1009.0 1007.6 0.0
18/08:00am 34.9 29.4 10.7 23 14.3 NNE 30 41 16 22 1008.6 1007.2 0.0
18/07:30am 34.0 29.7 10.6 24 13.7 NNE 24 32 13 17 1008.3 1006.9 0.0
18/07:00am 33.3 29.3 10.6 25 13.3 NNE 22 32 12 17 1007.8 1006.4 0.0
18/06:30am 33.3 29.7 10.6 25 13.3 NNE 20 28 11 15 1007.5 1006.1 0.0
18/06:00am 33.4 30.4 10.7 25 13.3 NNE 17 24 9 13 1007.2 1005.8 0.0
18/05:30am 33.7 30.6 10.3 24 13.6 NE 17 20 9 11 1007.1 1005.7 0.0
18/05:00am 33.9 31.5 9.9 23 13.9 NNE 13 17 7 9 1006.8 1005.4 0.0
18/04:30am 34.8 32.0 9.9 22 14.5 NNE 15 19 8 10 1006.8 1005.4 0.0
18/04:00am 35.4 32.9 9.7 21 15.0 NNW 13 17 7 9 1006.8 1005.4 0.0
18/03:30am 36.0 32.3 10.2 21 15.2 N 20 30 11 16 1006.4 1005.0 0.0
18/03:00am 36.4 32.2 9.8 20 15.6 NNE 22 26 12 14 1006.1 1004.7 0.0
18/02:30am 36.2 32.6 9.7 20 15.5 NNE 19 24 10 13 1006.1 1004.7 0.0
18/02:00am 36.9 33.2 9.5 19 16.0 NNE 19 28 10 15 1006.1 1004.7 0.0
18/01:30am 36.2 33.3 9.7 20 15.5 NE 15 20 8 11 1006.3 1004.9 0.0
18/01:00am 36.5 34.3 9.2 19 15.9 NE 11 13 6 7 1006.3 1004.9 0.0
18/12:30am 37.4 35.1 9.1 18 16.5 NNE 11 13 6 7 1006.3 1004.9 0.0
18/12:00am 38.1 35.5 7.9 16 17.4 NE 11 15 6 8 1005.9 1004.5 0.0
 
Date/Time
EDT
Temp
°C
App
Temp
°C
Dew
Point
°C
Rel
Hum
%
Delta-T
°C
Wind Press
QNH
hPa
Press
MSL
hPa
Rain since
9am
mm
Dir  Spd
km/h
Gust
km/h
Spd
kts
Gust
kts
17/11:30pm 38.9 35.9 7.6 15 17.9 NNE 13 15 7 8 1005.8 1004.3 0.0
17/11:00pm 39.7 36.2 7.2 14 18.6 NE 15 17 8 9 1005.6 1004.1 0.0
17/10:30pm 40.2 36.9 6.5 13 19.1 NE 13 17 7 9 1005.6 1004.1 0.0
17/10:00pm 39.8 37.2 6.2 13 19.0 NE 9 15 5 8 1005.6 1004.1 0.0
17/09:30pm 39.6 38.5 7.1 14 18.5 N 2 9 1 5 1005.6 1004.1 0.0
17/09:00pm 41.2 39.0 6.1 12 19.9 NE 7 13 4 7 1005.3 1003.8 0.0
17/08:30pm 41.0 37.1 7.1 13 19.4 ENE 17 24 9 13 1005.2 1003.7 0.0
17/08:00pm 41.1 37.3 6.0 12 19.9 SE 15 22 8 12 1004.9 1003.5 0.0
17/07:41pm 41.7 37.7 6.5 12 20.1 ESE 17 35 9 19 1004.6 1003.2 0.0
17/07:30pm 43.3 40.5 5.1 10 21.5 NNW 9 17 5 9 1004.6 1003.2 0.0
17/07:00pm 44.0 41.4 4.1 9 22.3 SE 7 11 4 6 1003.7 1002.3 0.0
17/06:30pm 44.5 42.1 4.5 9 22.5 ESE 6 11 3 6 1003.4 1002.0 0.0
17/06:00pm 45.1 42.2 4.9 9 22.8 ENE 9 13 5 7 1003.5 1002.1 0.0
17/05:30pm 44.5 40.4 4.5 9 22.5 NE 15 20 8 11 1003.6 1002.2 0.0
17/05:00pm 44.7 39.9 4.6 9 22.6 NE 19 28 10 15 1003.8 1002.4 0.0
17/04:30pm 46.1 41.9 4.0 8 23.6 N 15 26 8 14 1004.0 1002.6 0.0
17/04:00pm 45.8 41.6 3.7 8 23.6 NE 15 22 8 12 1004.3 1002.9 0.0
17/03:30pm 46.6 42.9 4.3 8 23.9 NW 13 24 7 13 1004.8 1003.4 0.0
17/03:00pm 45.0 40.7 3.2 8 23.2 NE 15 30 8 16 1005.2 1003.7 0.0
17/02:30pm 44.9 40.2 3.1 8 23.1 WNW 17 30 9 16 1005.6 1004.1 0.0
17/02:00pm 44.7 39.9 4.6 9 22.6 WNW 19 28 10 15 1006.0 1004.6 0.0
17/01:30pm 44.4 40.7 4.4 9 22.4 NW 13 30 7 16 1006.5 1005.1 0.0
17/01:00pm 44.1 40.3 5.7 10 21.9 N 15 26 8 14 1006.8 1005.4 0.0
17/12:30pm 43.5 39.9 5.2 10 21.6 NNW 13 22 7 12 1007.2 1005.8 0.0
17/12:00pm 43.0 38.1 4.9 10 21.4 NNW 20 32 11 17 1007.4 1006.0 0.0
17/11:30am 43.3 38.7 6.5 11 21.1 NNE 20 33 11 18 1007.6 1006.2 0.0
17/11:00am 42.1 37.6 6.8 12 20.3 NNW 20 30 11 16 1007.8 1006.4 0.0
17/10:30am 41.3 36.5 7.4 13 19.6 N 22 32 12 17 1007.9 1006.5 0.0
17/10:00am 39.7 35.5 8.2 15 18.3 N 20 30 11 16 1008.1 1006.7 0.0
17/09:30am 38.5 34.7 9.1 17 17.2 NNE 19 24 10 13 1008.3 1006.9 0.0
17/09:00am 37.0 33.7 9.6 19 16.1 NNE 17 24 9 13 1008.3 1006.9 0.0
17/08:30am 35.4 32.1 9.7 21 14.9 NNE 17 22 9 12 1008.2 1006.8 0.0
17/08:00am 33.7 31.0 10.3 24 13.7 NNE 15 20 8 11 1008.3 1006.9 0.0
17/07:30am 32.3 30.8 10.4 26 12.7 NE 9 15 5 8 1008.0 1006.6 0.0
17/07:00am 31.2 29.9 10.0 27 12.2 NNE 7 11 4 6 1007.8 1006.4 0.0
17/06:30am 31.7 29.4 10.4 27 12.3 NE 13 17 7 9 1007.4 1006.0 0.0
17/06:00am 32.2 30.2 10.3 26 12.7 NE 11 15 6 8 1007.4 1006.0 0.0
17/05:30am 33.0 29.9 10.4 25 13.2 NNE 17 22 9 12 1007.2 1005.8 0.0
17/05:00am 33.4 29.9 10.1 24 13.6 NE 19 26 10 14 1007.1 1005.7 0.0
17/04:30am 33.3 30.0 9.4 23 13.7 NE 17 22 9 12 1006.9 1005.5 0.0
17/04:00am 33.6 30.3 9.6 23 13.9 NE 17 22 9 12 1007.0 1005.6 0.0
17/03:30am 33.9 30.3 9.9 23 13.9 ENE 19 28 10 15 1007.0 1005.6 0.0
17/03:00am 33.0 30.9 9.7 24 13.4 NE 11 15 6 8 1006.8 1005.4 0.0
17/02:30am 33.5 31.6 8.9 22 14.0 NE 9 11 5 6 1006.8 1005.4 0.0
17/02:00am 33.7 31.8 9.0 22 14.1 NE 9 13 5 7 1006.9 1005.5 0.0
17/01:30am 34.0 31.8 9.3 22 14.2 NE 11 15 6 8 1007.1 1005.7 0.0
17/01:00am 34.4 31.9 9.6 22 14.4 ENE 13 17 7 9 1007.3 1005.9 0.0
17/12:30am 35.0 32.4 7.9 19 15.3 NNE 11 13 6 7 1007.2 1005.8 0.0
17/12:00am 34.8 33.3 8.5 20 15.0 NE 6 7 3 4 1007.3 1005.9 0.0
 
Date/Time
EDT
Temp
°C
App
Temp
°C
Dew
Point
°C
Rel
Hum
%
Delta-T
°C
Wind Press
QNH
hPa
Press
MSL
hPa
Rain since
9am
mm
Dir  Spd
km/h
Gust
km/h
Spd
kts
Gust
kts
16/11:30pm 35.9 33.5 8.7 19 15.6 NNE 11 15 6 8 1007.4 1006.0 0.0
16/11:00pm 37.6 34.3 6.6 15 17.4 N 13 17 7 9 1007.4 1006.0 0.0
16/10:30pm 37.5 34.8 7.4 16 17.1 N 11 17 6 9 1007.4 1006.0 0.0
16/10:00pm 39.5 37.1 7.1 14 18.5 NE 9 17 5 9 1007.4 1006.0 0.0
16/09:30pm 39.8 36.5 6.2 13 18.9 N 13 17 7 9 1007.1 1005.7 0.0
16/09:00pm 39.6 35.1 7.1 14 18.6 N 20 24 11 13 1006.7 1005.3 0.0
16/08:30pm 39.7 36.8 8.2 15 18.3 NE 13 20 7 11 1006.8 1005.4 0.0
16/08:00pm 40.4 37.4 7.8 14 18.9 N 13 17 7 9 1006.0 1004.6 0.0
16/07:30pm 40.0 37.0 9.4 16 18.1 NE 15 20 8 11 1006.0 1004.6 0.0
16/07:00pm 39.8 35.6 8.3 15 18.3 NNE 20 35 11 19 1005.7 1004.2 0.0
16/06:59pm 40.0 36.1 8.5 15 18.4 NE 19 35 10 19 1005.7 1004.2 0.0
16/06:30pm 45.4 41.9 3.5 8 23.3 WSW 11 20 6 11 1005.2 1003.7 0.0
16/06:00pm 45.4 39.8 3.5 8 23.4 WSW 22 35 12 19 1005.1 1003.6 0.0
16/05:30pm 45.7 42.6 3.7 8 23.4 SW 9 22 5 12 1005.3 1003.8 0.0
16/05:00pm 45.7 39.8 3.7 8 23.5 W 24 35 13 19 1005.4 1003.9 0.0
16/04:30pm 45.2 40.0 3.3 8 23.2 SSW 20 30 11 16 1005.8 1004.3 0.0
16/04:00pm 44.5 40.4 4.5 9 22.5 NW 15 30 8 16 1006.2 1004.8 0.0
16/03:30pm 44.8 41.1 4.7 9 22.6 W 13 28 7 15 1006.9 1005.5 0.0
16/03:00pm 43.4 38.4 3.7 9 22.0 W 19 28 10 15 1007.4 1006.0 0.0
16/02:30pm 44.6 39.6 4.5 9 22.5 WSW 20 35 11 19 1007.8 1006.4 0.0
16/02:00pm 44.1 39.2 4.2 9 22.3 NW 19 33 10 18 1008.1 1006.7 0.0
16/01:30pm 44.3 39.8 4.3 9 22.4 W 17 32 9 17 1008.5 1007.1 0.0
16/01:05pm 44.6 39.9 6.1 10 22.1 W 20 44 11 24 1008.8 1007.4 0.0
16/01:00pm 44.7 41.0 6.1 10 22.2 WNW 15 24 8 13 1008.9 1007.5 0.0
16/12:30pm 43.4 38.5 5.2 10 21.6 WSW 20 30 11 16 1009.3 1007.9 0.0
16/12:00pm 43.0 38.6 4.9 10 21.4 WSW 17 30 9 16 1009.5 1008.1 0.0
16/11:30am 42.8 38.0 4.7 10 21.3 W 19 32 10 17 1009.7 1008.3 0.0
16/11:00am 41.5 36.6 5.1 11 20.4 W 20 33 11 18 1010.0 1008.6 0.0
16/10:30am 41.2 37.1 6.1 12 19.9 WNW 17 32 9 17 1010.2 1008.8 0.0
16/10:00am 40.5 37.1 7.8 14 18.9 WNW 15 26 8 14 1010.5 1009.1 0.0
16/09:30am 38.8 37.1 7.5 15 17.9 W 6 13 3 7 1010.6 1009.2 0.0
16/09:00am 38.8 38.1 8.5 16 17.6 NW 2 7 1 4 1010.7 1009.3 0.0
16/08:30am 36.7 34.9 9.3 19 15.9 ESE 9 13 5 7 1010.5 1009.1 0.0
16/08:00am 34.2 33.1 10.1 23 14.0 NE 6 9 3 5 1010.1 1008.7 0.0
16/07:30am 32.8 32.1 10.2 25 13.1 E 4 9 2 5 1009.9 1008.4 0.0
16/07:00am 32.2 32.2 9.7 25 12.9 CALM 0 0 0 0 1009.5 1008.1 0.0
16/06:30am 32.5 30.1 8.7 23 13.5 NNW 11 17 6 9 1008.9 1007.5 0.0
16/06:00am 34.7 31.7 7.7 19 15.2 ENE 13 17 7 9 1008.3 1006.9 0.0
16/05:30am 36.8 34.2 5.9 15 17.1 NNE 9 13 5 7 1007.9 1006.5 0.0
16/05:00am 38.4 34.1 5.1 13 18.4 N 17 22 9 12 1008.1 1006.7 0.0
16/04:34am 38.4 32.6 6.2 14 18.0 WSW 26 67 14 36 1008.6 1007.2 0.0
16/04:32am 38.1 32.6 6.0 14 17.9 SW 24 67 13 36 1009.2 1007.8 0.0
16/04:30am 38.2 33.7 7.0 15 17.6 SW 20 43 11 23 1009.6 1008.2 0.0
16/04:14am 35.7 33.5 9.3 20 15.3 S 11 52 6 28 1009.3 1007.9 0.0
16/04:00am 32.7 31.1 10.1 25 13.1 NE 9 11 5 6 1009.4 1008.0 0.0
16/03:30am 32.9 33.0 10.3 25 13.1 CALM 0 0 0 0 1009.7 1008.3 0.0
16/03:00am 34.4 32.8 10.3 23 14.1 ESE 9 13 5 7 1010.0 1008.6 0.0
16/02:30am 35.4 32.3 9.0 20 15.2 S 15 19 8 10 1010.3 1008.9 0.0
16/02:00am 34.4 31.3 8.9 21 14.6 WSW 15 28 8 15 1010.1 1008.7 0.0
16/01:30am 35.8 32.1 9.3 20 15.3 N 19 22 10 12 1009.2 1007.8 0.0
16/01:00am 35.3 32.4 9.7 21 14.9 N 15 19 8 10 1009.5 1008.1 0.0
16/12:30am 36.0 32.7 9.5 20 15.4 N 17 22 9 12 1010.0 1008.6 0.0
16/12:00am 36.4 31.7 9.1 19 15.8 NNE 24 32 13 17 1010.1 1008.7 0.0
 
Date/Time
EDT
Temp
°C
App
Temp
°C
Dew
Point
°C
Rel
Hum
%
Delta-T
°C
Wind Press
QNH
hPa
Press
MSL
hPa
Rain since
9am
mm
Dir  Spd
km/h
Gust
km/h
Spd
kts
Gust
kts
15/11:30pm 35.9 30.9 10.9 22 14.8 NNE 28 35 15 19 1010.6 1009.2 0.0
15/11:00pm 34.2 31.2 12.5 27 13.1 ESE 20 28 11 15 1012.1 1010.7 0.0
15/10:30pm 37.1 32.7 10.4 20 15.8 S 24 39 13 21 1011.3 1009.9 0.0
15/10:00pm 38.1 34.4 7.9 16 17.3 NE 17 22 9 12 1009.9 1008.4 0.0
15/09:30pm 38.5 35.0 7.3 15 17.7 ENE 15 24 8 13 1009.7 1008.3 0.0
15/09:00pm 38.6 35.7 6.3 14 18.1 NNW 11 11 6 6 1009.4 1008.0 0.0
15/08:30pm 39.6 37.0 6.1 13 18.8 NNW 9 11 5 6 1009.2 1007.8 0.0
15/08:00pm 41.0 36.9 6.0 12 19.8 WNW 17 22 9 12 1008.9 1007.5 0.0
15/07:30pm 42.3 38.1 5.7 11 20.7 WNW 17 24 9 13 1008.7 1007.3 0.0
15/07:00pm 42.6 38.9 4.6 10 21.2 WNW 13 20 7 11 1008.6 1007.2 0.0
15/06:30pm 41.8 37.9 5.3 11 20.5 W 15 20 8 11 1008.6 1007.2 0.0
15/06:00pm 43.1 39.9 4.9 10 21.5 SW 11 24 6 13 1008.6 1007.2 0.0
15/05:30pm 42.1 36.9 5.6 11 20.6 WNW 22 33 12 18 1008.8 1007.4 0.0
15/05:00pm 43.2 39.5 6.4 11 21.1 NNW 15 24 8 13 1009.1 1007.7 0.0
15/04:30pm 42.1 38.3 5.6 11 20.6 W 15 28 8 15 1009.4 1008.0 0.0
15/04:00pm 42.5 39.1 5.9 11 20.8 N 13 26 7 14 1009.7 1008.3 0.0
15/03:30pm 42.7 38.8 7.3 12 20.5 N 17 24 9 13 1010.3 1008.9 0.0
15/03:00pm 41.3 37.6 6.2 12 19.9 NW 15 26 8 14 1010.9 1009.5 0.0
15/02:30pm 41.1 37.7 6.0 12 19.8 NNW 13 19 7 10 1011.4 1010.0 0.0
15/02:00pm 41.9 37.3 6.7 12 20.2 NW 20 35 11 19 1011.8 1010.4 0.0
15/01:30pm 40.8 35.7 5.8 12 19.7 NNW 22 33 12 18 1012.2 1010.8 0.0

Other Formats:

Comma delimited format used in spreadsheet applications
http://www.bom.gov.au/fwo/IDN60801/IDN60801.94710.axf

JavaScript Object Notation format (JSON) in row-major order
http://www.bom.gov.au/fwo/IDN60801/IDN60801.94710.json